createdAt,value
2023-01-11T00:02:16.601Z,5.80
2023-01-11T00:04:48.294Z,5.80
2023-01-11T00:07:19.429Z,5.80
2023-01-11T00:09:50.877Z,5.80
2023-01-11T00:12:24.507Z,5.80
2023-01-11T00:14:55.975Z,5.80
2023-01-11T00:17:27.073Z,5.80
2023-01-11T00:19:58.485Z,5.80
2023-01-11T00:22:32.442Z,5.80
2023-01-11T00:25:03.887Z,5.80
2023-01-11T00:27:37.786Z,5.90
2023-01-11T00:30:10.211Z,5.90
2023-01-11T00:32:41.852Z,5.80
2023-01-11T00:35:13.558Z,5.80
2023-01-11T00:37:44.496Z,5.80
2023-01-11T00:40:16.280Z,5.80
2023-01-11T00:43:02.060Z,5.80
2023-01-11T00:45:45.778Z,5.80
2023-01-11T00:48:16.586Z,5.80
2023-01-11T00:50:47.707Z,5.80
2023-01-11T00:53:19.631Z,5.70
2023-01-11T00:55:50.918Z,5.70
2023-01-11T00:58:24.626Z,5.70
2023-01-11T01:00:56.739Z,5.70
2023-01-11T01:03:27.516Z,5.70
2023-01-11T01:05:58.963Z,5.70
2023-01-11T01:08:30.695Z,5.70
2023-01-11T01:11:01.923Z,5.70
2023-01-11T01:13:48.255Z,5.70
2023-01-11T01:16:19.690Z,5.70
2023-01-11T01:18:50.155Z,5.70
2023-01-11T01:21:21.232Z,5.60
2023-01-11T01:23:51.943Z,5.70
2023-01-11T01:26:23.805Z,5.70
2023-01-11T01:28:57.275Z,5.70
2023-01-11T01:31:28.656Z,5.70
2023-01-11T01:34:00.108Z,5.70
2023-01-11T01:36:31.186Z,5.70
2023-01-11T01:39:03.359Z,5.70
2023-01-11T01:41:34.515Z,5.70
2023-01-11T01:44:43.785Z,5.70
2023-01-11T01:47:15.610Z,5.70
2023-01-11T01:49:48.177Z,5.70
2023-01-11T01:52:19.749Z,5.70
2023-01-11T01:54:52.422Z,5.70
2023-01-11T01:57:29.961Z,5.70
2023-01-11T02:00:08.929Z,5.70
2023-01-11T02:02:41.740Z,5.70
2023-01-11T02:05:13.544Z,5.70
2023-01-11T02:07:45.981Z,5.70
2023-01-11T02:10:20.120Z,5.70
2023-01-11T02:12:54.708Z,5.70
2023-01-11T02:15:29.204Z,5.70
2023-01-11T02:18:00.348Z,5.70
2023-01-11T02:20:47.873Z,5.70
2023-01-11T02:23:55.408Z,5.70
2023-01-11T02:26:59.153Z,5.70
2023-01-11T02:29:42.163Z,5.80
2023-01-11T02:32:24.552Z,5.70
2023-01-11T02:35:09.872Z,5.70
2023-01-11T02:37:50.792Z,5.80
2023-01-11T02:40:29.710Z,5.80
2023-01-11T02:43:20.955Z,5.80
2023-01-11T02:46:02.462Z,5.80
2023-01-11T02:48:39.253Z,5.80
2023-01-11T02:51:15.412Z,5.80
2023-01-11T02:53:50.103Z,5.80
2023-01-11T02:56:24.117Z,5.80
2023-01-11T02:58:58.787Z,5.80
2023-01-11T03:01:32.924Z,5.80
2023-01-11T03:04:03.816Z,5.80
2023-01-11T03:06:37.856Z,5.70
2023-01-11T03:09:23.054Z,5.80
2023-01-11T03:12:27.308Z,5.80
2023-01-11T03:15:05.709Z,5.80
2023-01-11T03:17:52.555Z,5.80
2023-01-11T03:20:27.603Z,5.80
2023-01-11T03:23:11.107Z,5.80
2023-01-11T03:25:51.337Z,5.80
2023-01-11T03:28:33.825Z,5.80
2023-01-11T03:31:09.850Z,5.80
2023-01-11T03:33:53.407Z,5.80
2023-01-11T03:36:28.011Z,5.80
2023-01-11T03:39:06.461Z,5.80
2023-01-11T03:41:41.887Z,5.80
2023-01-11T03:44:17.758Z,5.80
2023-01-11T03:46:51.721Z,5.80
2023-01-11T03:49:31.051Z,5.80
2023-01-11T03:52:04.689Z,5.80
2023-01-11T03:54:37.429Z,5.80
2023-01-11T03:57:13.511Z,5.90
2023-01-11T03:59:45.077Z,5.90
2023-01-11T04:02:20.160Z,5.80
2023-01-11T04:04:54.354Z,5.90
2023-01-11T04:07:26.033Z,5.80
2023-01-11T04:09:58.704Z,5.80
2023-01-11T04:12:29.886Z,5.80
2023-01-11T04:15:03.242Z,5.80
2023-01-11T04:17:34.510Z,5.80
2023-01-11T04:20:09.647Z,5.70
2023-01-11T04:22:40.945Z,5.70
2023-01-11T04:25:12.818Z,5.60
2023-01-11T04:27:44.229Z,5.70
2023-01-11T04:30:16.484Z,5.70
2023-01-11T04:32:47.275Z,5.60
2023-01-11T04:35:21.433Z,5.60
2023-01-11T04:37:52.190Z,5.60
2023-01-11T04:40:23.465Z,5.60
2023-01-11T04:42:51.296Z,5.60
2023-01-11T04:45:25.858Z,5.50
2023-01-11T04:48:00.370Z,5.50
2023-01-11T04:50:34.252Z,5.50
2023-01-11T04:53:05.604Z,5.50
2023-01-11T04:55:36.975Z,5.40
2023-01-11T04:58:07.888Z,5.40
2023-01-11T05:00:39.268Z,5.40
2023-01-11T05:03:10.029Z,5.40
2023-01-11T05:05:43.800Z,5.40
2023-01-11T05:08:14.824Z,5.30
2023-01-11T05:10:46.133Z,5.30
2023-01-11T05:13:17.362Z,5.30
2023-01-11T05:15:48.603Z,5.30
2023-01-11T05:18:19.088Z,5.30
2023-01-11T05:20:55.117Z,5.30
2023-01-11T05:23:26.027Z,5.30
2023-01-11T05:25:57.488Z,5.30
2023-01-11T05:28:28.453Z,5.30
2023-01-11T05:30:59.664Z,5.30
2023-01-11T05:33:30.687Z,5.30
2023-01-11T05:36:06.184Z,5.30
2023-01-11T05:38:37.359Z,5.20
2023-01-11T05:41:11.003Z,5.30
2023-01-11T05:44:02.507Z,5.30
2023-01-11T05:46:32.185Z,5.30
2023-01-11T05:49:03.849Z,5.30
2023-01-11T05:51:38.427Z,5.30
2023-01-11T05:54:12.422Z,5.30
2023-01-11T05:56:44.678Z,5.30
2023-01-11T05:59:15.805Z,5.30
2023-01-11T06:01:48.228Z,5.30
2023-01-11T06:04:19.255Z,5.30
2023-01-11T06:06:53.760Z,5.30
2023-01-11T06:09:25.239Z,5.40
2023-01-11T06:11:57.942Z,5.30
2023-01-11T06:14:28.886Z,5.40
2023-01-11T06:17:01.185Z,5.30
2023-01-11T06:19:32.410Z,5.30
2023-01-11T06:22:07.154Z,5.40
2023-01-11T06:24:38.525Z,5.40
2023-01-11T06:27:09.875Z,5.40
2023-01-11T06:29:41.076Z,5.40
2023-01-11T06:32:12.439Z,5.40
2023-01-11T06:34:43.420Z,5.40
2023-01-11T06:37:18.106Z,5.40
2023-01-11T06:39:49.060Z,5.40
2023-01-11T06:42:20.306Z,5.40
2023-01-11T06:44:50.851Z,5.40
2023-01-11T06:47:22.242Z,5.40
2023-01-11T06:49:53.231Z,5.40
2023-01-11T06:52:27.419Z,5.40
2023-01-11T06:54:58.247Z,5.40
2023-01-11T06:57:29.513Z,5.40
2023-01-11T07:00:00.004Z,5.40
2023-01-11T07:02:31.514Z,5.40
2023-01-11T07:05:02.446Z,5.40
2023-01-11T07:07:36.475Z,5.30
2023-01-11T07:10:09.471Z,5.30
2023-01-11T07:12:40.749Z,5.30
2023-01-11T07:15:12.177Z,5.30
2023-01-11T07:17:43.384Z,5.20
2023-01-11T07:20:14.628Z,5.20
2023-01-11T07:22:48.632Z,5.20
2023-01-11T07:25:21.472Z,5.20
2023-01-11T07:27:52.659Z,5.20
2023-01-11T07:30:23.336Z,5.30
2023-01-11T07:32:55.071Z,5.30
2023-01-11T07:35:27.980Z,5.30
2023-01-11T07:38:03.256Z,5.30
2023-01-11T07:40:36.597Z,5.30
2023-01-11T07:43:15.376Z,5.30
2023-01-11T07:45:49.857Z,5.30
2023-01-11T07:48:25.461Z,5.30
2023-01-11T07:50:57.046Z,5.40
2023-01-11T07:53:31.322Z,5.40
2023-01-11T07:56:02.437Z,5.30
2023-01-11T07:58:33.672Z,5.30
2023-01-11T08:01:04.169Z,5.40
2023-01-11T08:03:36.009Z,5.40
2023-01-11T08:06:07.315Z,5.40
2023-01-11T08:08:41.557Z,5.30
2023-01-11T08:11:25.168Z,5.30
2023-01-11T08:14:09.123Z,5.40
2023-01-11T08:16:40.015Z,5.30
2023-01-11T08:19:11.443Z,5.40
2023-01-11T08:21:44.685Z,5.30
2023-01-11T08:24:18.726Z,5.30
2023-01-11T08:26:49.629Z,5.30
2023-01-11T08:29:21.083Z,5.30
2023-01-11T08:31:52.242Z,5.30
2023-01-11T08:34:23.873Z,5.30
2023-01-11T08:36:57.054Z,5.30
2023-01-11T08:39:32.417Z,5.20
2023-01-11T08:42:03.862Z,5.20
2023-01-11T08:44:35.296Z,5.20
2023-01-11T08:47:06.661Z,5.20
2023-01-11T08:49:38.065Z,5.20
2023-01-11T08:52:08.896Z,5.20
2023-01-11T08:54:42.923Z,5.20
2023-01-11T08:57:14.112Z,5.20
2023-01-11T08:59:45.981Z,5.20
2023-01-11T09:02:17.339Z,5.20
2023-01-11T09:04:48.649Z,5.20
2023-01-11T09:07:19.132Z,5.30
2023-01-11T09:09:53.444Z,5.20
2023-01-11T09:12:24.413Z,5.20
2023-01-11T09:14:55.826Z,5.20
2023-01-11T09:17:26.839Z,5.20
2023-01-11T09:19:58.631Z,5.20
2023-01-11T09:22:29.703Z,5.20
2023-01-11T09:25:03.473Z,5.30
2023-01-11T09:27:34.572Z,5.20
2023-01-11T09:30:06.127Z,5.20
2023-01-11T09:32:37.237Z,5.20
2023-01-11T09:35:09.703Z,5.20
2023-01-11T09:37:44.681Z,5.20
2023-01-11T09:40:22.479Z,5.20
2023-01-11T09:43:00.071Z,5.20
2023-01-11T09:45:34.213Z,5.20
2023-01-11T09:48:12.839Z,5.20
2023-01-11T09:50:48.695Z,5.20
2023-01-11T09:53:28.418Z,5.20
2023-01-11T09:56:05.373Z,5.30
2023-01-11T09:59:00.858Z,5.20
2023-01-11T10:01:40.882Z,5.30
2023-01-11T10:04:39.244Z,5.30
2023-01-11T10:07:27.504Z,5.30
2023-01-11T10:18:39.749Z,5.40
2023-01-11T10:19:35.824Z,5.50
2023-01-11T10:22:18.555Z,5.50
2023-01-11T10:24:58.664Z,5.50
2023-01-11T10:28:26.476Z,5.50
2023-01-11T10:31:33.340Z,5.60
2023-01-11T10:34:47.450Z,5.60
2023-01-11T10:38:02.615Z,5.60
2023-01-11T10:41:00.893Z,5.60
2023-01-11T10:43:35.493Z,5.60
2023-01-11T10:46:12.663Z,5.70
2023-01-11T10:48:45.476Z,5.70
2023-01-11T10:51:30.653Z,5.60
2023-01-11T10:54:16.939Z,5.60
2023-01-11T10:57:05.159Z,5.70
2023-01-11T11:00:05.963Z,5.70
2023-01-11T11:03:04.745Z,5.70
2023-01-11T11:05:45.155Z,5.70
2023-01-11T11:08:22.875Z,5.70
2023-01-11T11:10:59.651Z,5.70
2023-01-11T11:13:43.445Z,5.60
2023-01-11T11:16:27.727Z,5.60
2023-01-11T11:19:02.604Z,5.70
2023-01-11T11:21:38.721Z,5.70
2023-01-11T11:24:17.064Z,5.70
2023-01-11T11:26:52.421Z,5.70
2023-01-11T11:29:30.935Z,5.70
2023-01-11T11:32:04.186Z,5.70
2023-01-11T11:34:38.876Z,5.70
2023-01-11T11:37:30.370Z,5.70
2023-01-11T11:40:02.310Z,5.70
2023-01-11T11:42:33.976Z,5.70
2023-01-11T11:45:19.452Z,5.70
2023-01-11T11:48:05.639Z,5.70
2023-01-11T11:50:45.388Z,5.70
2023-01-11T11:53:36.065Z,5.70
2023-01-11T11:56:18.738Z,5.70
2023-01-11T11:58:51.203Z,5.70
2023-01-11T12:01:31.735Z,5.70
2023-01-11T12:04:04.298Z,5.70
2023-01-11T12:06:38.346Z,5.70
2023-01-11T12:09:15.883Z,5.60
2023-01-11T12:11:51.515Z,5.70
2023-01-11T12:14:28.651Z,5.70
2023-01-11T12:17:18.433Z,5.70
2023-01-11T12:19:50.591Z,5.70
2023-01-11T12:22:26.775Z,5.70
2023-01-11T12:25:09.078Z,5.70
2023-01-11T12:27:45.966Z,5.70
2023-01-11T12:30:25.686Z,5.80
2023-01-11T12:33:28.233Z,5.80
2023-01-11T12:36:07.851Z,5.80
2023-01-11T12:38:55.266Z,5.80
2023-01-11T12:41:58.818Z,5.90
2023-01-11T12:44:49.566Z,5.90
2023-01-11T12:47:45.897Z,5.90
2023-01-11T12:50:25.194Z,5.90
2023-01-11T12:53:15.641Z,5.90
2023-01-11T12:56:03.961Z,5.90
2023-01-11T12:58:40.510Z,5.80
2023-01-11T13:01:36.984Z,5.90
2023-01-11T13:04:35.996Z,5.90
2023-01-11T13:07:17.807Z,5.90
2023-01-11T13:09:59.393Z,5.80
2023-01-11T13:12:42.594Z,5.80
2023-01-11T13:15:34.784Z,5.90
2023-01-11T13:18:14.590Z,5.90
2023-01-11T13:21:01.161Z,5.90
2023-01-11T13:23:42.332Z,5.90
2023-01-11T13:26:22.288Z,5.90
2023-01-11T13:29:00.973Z,5.90
2023-01-11T13:31:35.139Z,5.90
2023-01-11T13:34:13.742Z,5.90
2023-01-11T13:36:51.730Z,5.80
2023-01-11T13:39:32.233Z,5.80
2023-01-11T13:42:08.015Z,5.80
2023-01-11T13:44:47.804Z,5.80
2023-01-11T13:47:34.729Z,5.70
2023-01-11T13:50:12.693Z,5.70
2023-01-11T13:52:53.442Z,5.70
2023-01-11T13:55:29.935Z,5.70
2023-01-11T13:58:06.505Z,5.70
2023-01-11T14:00:44.473Z,5.70
2023-01-11T14:03:26.405Z,5.70
2023-01-11T14:06:15.633Z,5.70
2023-01-11T14:09:00.737Z,5.60
2023-01-11T14:11:40.853Z,5.60
2023-01-11T14:14:38.938Z,5.60
2023-01-11T14:17:46.057Z,5.60
2023-01-11T14:20:26.173Z,5.60
2023-01-11T14:23:07.782Z,5.60
2023-01-11T14:25:47.973Z,5.50
2023-01-11T14:28:37.843Z,5.60
2023-01-11T14:31:24.383Z,5.50
2023-01-11T14:34:18.155Z,5.50
2023-01-11T14:37:18.149Z,5.60
2023-01-11T14:40:14.787Z,5.60
2023-01-11T14:43:28.298Z,5.50
2023-01-11T14:46:22.836Z,5.50
2023-01-11T14:49:10.794Z,5.50
2023-01-11T14:51:56.467Z,5.50
2023-01-11T14:54:31.779Z,5.50
2023-01-11T14:57:03.585Z,5.50
2023-01-11T14:59:43.100Z,5.40
2023-01-11T15:02:26.381Z,5.40
2023-01-11T15:05:33.433Z,5.40
2023-01-11T15:08:25.377Z,5.40
2023-01-11T15:11:01.008Z,5.40
2023-01-11T15:13:34.006Z,5.30
2023-01-11T15:16:24.706Z,5.30
2023-01-11T15:18:56.992Z,5.30
2023-01-11T15:21:31.712Z,5.30
2023-01-11T15:24:02.785Z,5.20
2023-01-11T15:26:35.104Z,5.30
2023-01-11T15:29:06.199Z,5.20
2023-01-11T15:31:46.223Z,5.30
2023-01-11T15:34:29.456Z,5.20
2023-01-11T15:37:31.574Z,5.20
2023-01-11T15:40:14.510Z,5.20
2023-01-11T15:43:33.133Z,5.30
2023-01-11T15:46:57.495Z,5.30
2023-01-11T15:49:58.661Z,5.20
2023-01-11T15:53:02.376Z,5.20
2023-01-11T15:56:27.856Z,5.20
2023-01-11T15:59:32.165Z,5.20
2023-01-11T16:02:37.843Z,5.10
2023-01-11T16:05:19.266Z,5.10
2023-01-11T16:07:57.484Z,5.10
2023-01-11T16:10:53.734Z,5.00
2023-01-11T16:13:47.857Z,5.00
2023-01-11T16:16:22.986Z,5.00
2023-01-11T16:18:58.977Z,5.00
2023-01-11T16:21:35.381Z,5.00
2023-01-11T16:24:10.363Z,4.90
2023-01-11T16:26:44.313Z,4.90
2023-01-11T16:29:24.173Z,4.90
2023-01-11T16:31:58.025Z,4.90
2023-01-11T16:34:29.976Z,5.00
2023-01-11T16:37:03.295Z,5.00
2023-01-11T16:39:36.869Z,5.00
2023-01-11T16:42:09.366Z,5.00
2023-01-11T16:44:49.044Z,5.00
2023-01-11T16:47:21.968Z,5.00
2023-01-11T16:50:13.515Z,5.00
2023-01-11T16:52:51.128Z,5.00
2023-01-11T16:55:32.830Z,5.00
2023-01-11T16:58:06.099Z,5.10
2023-01-11T17:00:41.995Z,5.10
2023-01-11T17:03:24.750Z,5.10
2023-01-11T17:06:18.266Z,5.10
2023-01-11T17:08:52.662Z,5.10
2023-01-11T17:11:38.385Z,5.10
2023-01-11T17:14:38.416Z,5.10
2023-01-11T17:17:14.935Z,5.10
2023-01-11T17:19:48.409Z,5.10
2023-01-11T17:22:25.262Z,5.10
2023-01-11T17:24:58.715Z,5.10
2023-01-11T17:27:33.392Z,5.10
2023-01-11T17:30:05.936Z,5.10
2023-01-11T17:32:44.239Z,5.10
2023-01-11T17:35:19.696Z,5.00
2023-01-11T17:37:53.373Z,5.10
2023-01-11T17:40:28.391Z,5.10
2023-01-11T17:43:15.847Z,5.10
2023-01-11T17:45:51.550Z,5.10
2023-01-11T17:48:26.147Z,5.10
2023-01-11T17:50:59.812Z,5.10
2023-01-11T17:53:34.161Z,5.10
2023-01-11T17:56:08.029Z,5.10
2023-01-11T17:58:40.851Z,5.10
2023-01-11T18:01:23.251Z,5.10
2023-01-11T18:03:59.949Z,5.10
2023-01-11T18:06:37.715Z,5.10
2023-01-11T18:09:22.414Z,5.10
2023-01-11T18:11:55.319Z,5.10
2023-01-11T18:14:29.040Z,5.10
2023-01-11T18:17:02.278Z,5.10
2023-01-11T18:19:43.535Z,5.10
2023-01-11T18:22:32.976Z,5.10
2023-01-11T18:25:08.832Z,5.10
2023-01-11T18:27:39.977Z,5.10
2023-01-11T18:30:38.915Z,5.20
2023-01-11T18:33:16.543Z,5.10
2023-01-11T18:35:53.679Z,5.10
2023-01-11T18:38:29.011Z,5.20
2023-01-11T18:41:22.977Z,5.10
2023-01-11T18:43:54.843Z,5.10
2023-01-11T18:46:26.317Z,5.10
2023-01-11T18:48:57.540Z,5.10
2023-01-11T18:51:35.079Z,5.10
2023-01-11T18:54:06.713Z,5.10
2023-01-11T18:56:40.216Z,5.10
2023-01-11T18:59:11.458Z,5.10
2023-01-11T19:01:56.633Z,5.10
2023-01-11T19:04:34.919Z,5.10
2023-01-11T19:07:09.176Z,5.10
2023-01-11T19:09:40.217Z,5.10
2023-01-11T19:12:11.753Z,5.10
2023-01-11T19:14:43.254Z,5.00
2023-01-11T19:17:15.384Z,5.00
2023-01-11T19:19:47.024Z,5.00
2023-01-11T19:22:26.075Z,5.10
2023-01-11T19:24:59.313Z,5.10
2023-01-11T19:27:30.607Z,5.00
2023-01-11T19:30:01.678Z,5.10
2023-01-11T19:32:33.163Z,5.00
2023-01-11T19:35:27.741Z,5.00
2023-01-11T19:38:02.608Z,5.00
2023-01-11T19:40:35.589Z,5.00
2023-01-11T19:43:07.247Z,5.00
2023-01-11T19:45:41.892Z,5.00
2023-01-11T19:48:14.816Z,5.10
2023-01-11T19:50:47.392Z,5.10
2023-01-11T19:53:21.674Z,5.10
2023-01-11T19:55:54.903Z,5.20
2023-01-11T19:58:28.447Z,5.20
2023-01-11T20:00:59.650Z,5.20
2023-01-11T20:03:32.806Z,5.20
2023-01-11T20:06:10.710Z,5.20
2023-01-11T20:08:45.486Z,5.20
2023-01-11T20:11:18.168Z,5.20
2023-01-11T20:13:53.549Z,5.20
2023-01-11T20:16:26.080Z,5.30
2023-01-11T20:18:59.751Z,5.30
2023-01-11T20:21:34.320Z,5.30
2023-01-11T20:24:13.288Z,5.30
2023-01-11T20:26:46.752Z,5.30
2023-01-11T20:29:18.253Z,5.40
2023-01-11T20:31:49.667Z,5.40
2023-01-11T20:34:24.017Z,5.40
2023-01-11T20:37:07.959Z,5.40
2023-01-11T20:39:43.841Z,5.40
2023-01-11T20:42:17.418Z,5.40
2023-01-11T20:44:49.044Z,5.40
2023-01-11T20:47:20.145Z,5.50
2023-01-11T20:49:51.594Z,5.50
2023-01-11T20:52:22.568Z,5.50
2023-01-11T20:54:58.863Z,5.50
2023-01-11T20:57:30.640Z,5.50
2023-01-11T21:00:02.105Z,5.50
2023-01-11T21:02:33.301Z,5.50
2023-01-11T21:05:05.536Z,5.50
2023-01-11T21:07:38.531Z,5.50
2023-01-11T21:10:14.639Z,5.50
2023-01-11T21:15:18.471Z,5.50
2023-01-11T21:17:50.683Z,5.50
2023-01-11T21:20:24.554Z,5.50
2023-01-11T21:23:01.778Z,5.50
2023-01-11T21:25:37.504Z,5.50
2023-01-11T21:28:08.814Z,5.50
2023-01-11T21:30:40.207Z,5.50
2023-01-11T21:33:17.559Z,5.50
2023-01-11T21:35:49.223Z,5.50
2023-01-11T21:38:20.547Z,5.50
2023-01-11T21:40:54.698Z,5.50
2023-01-11T21:43:25.625Z,5.50
2023-01-11T21:45:58.531Z,5.50
2023-01-11T21:48:29.801Z,5.50
2023-01-11T21:51:01.695Z,5.50
2023-01-11T21:53:34.425Z,5.50
2023-01-11T21:56:10.265Z,5.50
2023-01-11T21:58:41.454Z,5.50
2023-01-11T22:01:14.025Z,5.50
2023-01-11T22:03:45.390Z,5.50
2023-01-11T22:06:17.429Z,5.50
2023-01-11T22:08:49.125Z,5.50
2023-01-11T22:11:23.089Z,5.50
2023-01-11T22:13:57.128Z,5.50
2023-01-11T22:16:29.100Z,5.50
2023-01-11T22:19:00.822Z,5.50
2023-01-11T22:21:32.239Z,5.50
2023-01-11T22:24:03.697Z,5.60
2023-01-11T22:26:39.247Z,5.50
2023-01-11T22:29:20.728Z,5.50
2023-01-11T22:31:55.551Z,5.50
2023-01-11T22:34:27.833Z,5.50
2023-01-11T22:36:59.253Z,5.50
2023-01-11T22:39:30.709Z,5.50
2023-01-11T22:42:04.917Z,5.50
2023-01-11T22:44:36.117Z,5.50
2023-01-11T22:47:07.850Z,5.50
2023-01-11T22:49:38.896Z,5.60
2023-01-11T22:52:10.265Z,5.60
2023-01-11T22:54:41.258Z,5.60
2023-01-11T22:57:15.344Z,5.60
2023-01-11T22:59:46.422Z,5.60
2023-01-11T23:02:17.902Z,5.60
2023-01-11T23:04:49.199Z,5.60
2023-01-11T23:07:20.583Z,5.60
2023-01-11T23:09:53.828Z,5.60
2023-01-11T23:12:40.146Z,5.60
2023-01-11T23:15:12.636Z,5.60
2023-01-11T23:17:46.431Z,5.60
2023-01-11T23:20:17.517Z,5.60
2023-01-11T23:22:48.816Z,5.60
2023-01-11T23:25:19.646Z,5.60
2023-01-11T23:27:53.116Z,5.60
2023-01-11T23:30:24.519Z,5.60
2023-01-11T23:32:55.788Z,5.60
2023-01-11T23:35:26.810Z,5.60
2023-01-11T23:37:58.387Z,5.60
2023-01-11T23:40:29.267Z,5.60
2023-01-11T23:43:00.682Z,5.60
2023-01-11T23:45:31.572Z,5.60
2023-01-11T23:48:00.312Z,5.60
2023-01-11T23:50:31.341Z,5.60
2023-01-11T23:53:02.786Z,5.60
2023-01-11T23:55:33.685Z,5.60
2023-01-11T23:58:13.671Z,5.60
